Time;durP1;ratioP1;P1;durP2;ratioP2;P2;SDS_P1;SDS_P2;PMS_P1;PMS_P2;Temp;Humidity;BMP_temperature;BMP_pressure;BME280_temperature;BME280_humidity;BME280_pressure;Samples;Min_cycle;Max_cycle;Signal;HPM_P1;HPM_P2
2022/10/06 00:00:47;;;;;;;3.72;1.10;;;13.40;99.90;;;;;;4787466;30;20058;-67
2022/10/06 00:03:13;;;;;;;1.88;0.90;;;13.40;99.90;;;;;;4762869;30;20393;-68
2022/10/06 00:05:40;;;;;;;3.92;1.00;;;13.40;99.90;;;;;;4788175;30;20433;-67
2022/10/06 00:08:14;;;;;;;4.10;1.00;;;13.40;99.90;;;;;;4786997;29;20062;-67
2022/10/06 00:10:40;;;;;;;3.95;1.00;;;13.30;99.90;;;;;;4786641;30;20130;-67
2022/10/06 00:13:07;;;;;;;4.18;1.05;;;13.30;99.90;;;;;;4770293;30;20122;-68
2022/10/06 00:15:33;;;;;;;5.40;1.38;;;13.30;99.90;;;;;;4787211;30;20051;-67
2022/10/06 00:18:00;;;;;;;7.00;1.00;;;13.30;99.90;;;;;;4772068;30;20384;-67
2022/10/06 00:20:27;;;;;;;3.55;1.38;;;13.20;99.90;;;;;;4788005;30;20054;-67
2022/10/06 00:22:55;;;;;;;6.47;1.15;;;13.20;99.90;;;;;;4787924;30;20108;-67
2022/10/06 00:25:23;;;;;;;3.90;1.27;;;13.10;99.90;;;;;;4787267;30;20047;-68
2022/10/06 00:27:50;;;;;;;3.72;1.10;;;13.10;99.90;;;;;;4770241;30;20063;-67
2022/10/06 00:30:19;;;;;;;3.30;1.23;;;13.00;99.90;;;;;;4771505;30;20098;-68
2022/10/06 00:33:01;;;;;;;2.63;0.85;;;13.00;99.90;;;;;;4769115;30;20059;-68
2022/10/06 00:35:33;;;;;;;3.13;0.88;;;12.90;99.90;;;;;;4783991;30;20047;-68
2022/10/06 00:37:59;;;;;;;;;;;12.90;99.90;;;;;;4787450;30;20055;-67
2022/10/06 00:44:27;;;;;;;4.60;1.08;;;12.90;99.90;;;;;;4788055;30;20396;-67
2022/10/06 00:46:55;;;;;;;2.22;0.82;;;12.80;99.90;;;;;;4770947;30;20044;-67
2022/10/06 00:49:48;;;;;;;3.20;1.05;;;12.80;99.90;;;;;;4770984;30;20732;-67
2022/10/06 00:55:16;;;;;;;4.65;0.93;;;12.80;99.90;;;;;;4786540;30;20043;-68
2022/10/06 01:01:18;;;;;;;4.00;0.98;;;12.70;99.90;;;;;;4763179;30;20126;-68
2022/10/06 01:10:38;;;;;;;8.07;1.30;;;12.60;99.90;;;;;;4770291;30;20058;-67
2022/10/06 01:13:05;;;;;;;3.35;1.08;;;12.60;99.90;;;;;;4784769;29;20059;-67
2022/10/06 01:15:32;;;;;;;7.20;1.58;;;12.60;99.90;;;;;;4770905;30;20100;-67
2022/10/06 01:18:06;;;;;;;5.18;1.60;;;12.60;99.90;;;;;;4770626;30;20087;-67
2022/10/06 01:20:34;;;;;;;9.20;1.45;;;12.60;99.90;;;;;;4787306;30;20135;-68
2022/10/06 01:23:04;;;;;;;7.00;1.60;;;12.60;99.90;;;;;;4771085;30;20056;-67
2022/10/06 01:25:31;;;;;;;4.75;1.33;;;12.50;99.90;;;;;;4769957;30;20435;-67
2022/10/06 01:27:59;;;;;;;5.35;1.33;;;12.50;99.90;;;;;;4786404;30;20047;-67
2022/10/06 01:30:31;;;;;;;6.20;1.10;;;12.50;99.90;;;;;;4770768;30;20124;-67
2022/10/06 01:32:57;;;;;;;7.95;1.60;;;12.40;99.90;;;;;;4782881;30;20466;-67
2022/10/06 01:35:23;;;;;;;4.57;1.10;;;12.40;99.90;;;;;;4769944;30;20078;-68
2022/10/06 01:37:48;;;;;;;5.70;1.25;;;12.30;99.90;;;;;;4786601;30;20074;-68
2022/10/06 01:40:14;;;;;;;7.38;2.15;;;12.30;99.90;;;;;;4769566;30;20507;-67
2022/10/06 01:42:42;;;;;;;6.68;1.15;;;12.30;99.90;;;;;;4784237;30;20040;-67
2022/10/06 01:45:17;;;;;;;6.68;1.25;;;12.20;99.90;;;;;;4786255;30;20437;-67
2022/10/06 01:48:11;;;;;;;9.38;1.52;;;12.20;99.90;;;;;;4770293;30;20073;-67
2022/10/06 01:50:48;;;;;;;6.53;1.30;;;12.20;99.90;;;;;;4770369;30;20079;-67
2022/10/06 01:53:14;;;;;;;7.88;2.17;;;12.10;99.90;;;;;;4773497;30;20054;-67
2022/10/06 01:55:40;;;;;;;4.35;1.50;;;12.10;99.90;;;;;;4786271;30;20059;-67
2022/10/06 01:58:08;;;;;;;6.47;1.23;;;12.10;99.90;;;;;;4770393;30;20105;-67
2022/10/06 02:01:06;;;;;;;4.47;1.13;;;12.10;99.90;;;;;;4768947;30;20059;-67
2022/10/06 02:03:38;;;;;;;4.30;1.40;;;12.00;99.90;;;;;;4782372;29;20051;-67
2022/10/06 02:06:05;;;;;;;3.88;1.45;;;12.00;99.90;;;;;;4753434;30;20374;-68
2022/10/06 02:08:31;;;;;;;7.80;1.75;;;12.00;99.90;;;;;;4785028;30;20153;-67
2022/10/06 02:10:56;;;;;;;7.28;1.35;;;12.00;99.90;;;;;;4755047;30;20149;-66
2022/10/06 02:13:26;;;;;;;5.90;1.38;;;11.90;99.90;;;;;;4785572;30;20134;-66
2022/10/06 02:15:58;;;;;;;5.25;1.13;;;11.90;99.90;;;;;;4785511;30;20137;-67
2022/10/06 02:18:24;;;;;;;4.85;1.20;;;12.00;99.90;;;;;;4787180;30;20047;-67
2022/10/06 02:20:50;;;;;;;8.32;1.92;;;11.90;99.90;;;;;;4788043;30;20055;-67
2022/10/06 02:23:16;;;;;;;7.70;1.75;;;11.90;99.90;;;;;;4785812;30;20078;-67
2022/10/06 02:25:41;;;;;;;6.07;1.70;;;11.80;99.90;;;;;;4767146;30;20509;-67
2022/10/06 02:28:07;;;;;;;8.90;1.33;;;11.80;99.90;;;;;;4770500;30;20477;-67
2022/10/06 02:30:32;;;;;;;4.97;1.58;;;11.70;99.90;;;;;;4771885;30;20048;-67
2022/10/06 02:32:58;;;;;;;5.90;1.45;;;11.70;99.90;;;;;;4789340;30;20067;-66
2022/10/06 02:35:24;;;;;;;5.53;1.90;;;11.80;99.90;;;;;;4790442;30;20061;-67
2022/10/06 02:37:49;;;;;;;5.47;1.30;;;11.70;99.90;;;;;;4788724;30;20047;-67
2022/10/06 02:40:15;;;;;;;6.65;1.63;;;11.60;99.90;;;;;;4789659;30;20078;-67
2022/10/06 02:42:41;;;;;;;6.55;1.92;;;11.60;99.90;;;;;;4784995;30;20333;-67
2022/10/06 02:45:07;;;;;;;7.40;1.25;;;11.60;99.90;;;;;;4772640;30;20062;-67
2022/10/06 02:47:37;;;;;;;8.07;1.83;;;11.60;99.90;;;;;;4777604;30;20075;-67
2022/10/06 02:50:06;;;;;;;5.53;1.33;;;11.50;99.90;;;;;;4789265;30;20101;-67
2022/10/06 02:52:34;;;;;;;5.32;1.60;;;11.50;99.90;;;;;;4758259;30;20058;-67
2022/10/06 02:55:01;;;;;;;7.15;1.55;;;11.50;99.90;;;;;;4773223;30;20047;-67
2022/10/06 02:57:27;;;;;;;6.80;1.45;;;11.50;99.90;;;;;;4773030;30;20051;-67
2022/10/06 02:59:52;;;;;;;7.80;1.63;;;11.50;99.90;;;;;;4772189;30;20620;-67
2022/10/06 03:02:18;;;;;;;8.82;1.40;;;11.50;99.90;;;;;;4789319;30;20265;-67
2022/10/06 03:04:43;;;;;;;8.60;1.60;;;11.50;99.90;;;;;;4773155;30;20082;-67
2022/10/06 03:07:09;;;;;;;3.70;1.23;;;11.50;99.90;;;;;;4789366;30;20093;-67
2022/10/06 03:09:34;;;;;;;5.30;1.50;;;11.50;99.90;;;;;;4759448;30;20066;-67
2022/10/06 03:12:00;;;;;;;8.60;1.75;;;11.50;99.90;;;;;;4773070;30;20043;-67
2022/10/06 03:14:25;;;;;;;9.75;1.77;;;11.40;99.90;;;;;;4773896;30;20083;-67
2022/10/06 03:16:51;;;;;;;4.65;1.65;;;11.40;99.90;;;;;;4788268;30;20065;-67
2022/10/06 03:19:17;;;;;;;12.45;1.90;;;11.40;99.90;;;;;;4788146;30;20066;-66
2022/10/06 03:21:43;;;;;;;5.30;1.58;;;11.30;99.90;;;;;;4772749;30;20055;-67
2022/10/06 03:24:09;;;;;;;7.30;1.77;;;11.30;99.90;;;;;;4787887;30;20058;-66
2022/10/06 03:26:37;;;;;;;9.05;2.03;;;11.30;99.90;;;;;;4788951;30;20059;-67
2022/10/06 03:29:03;;;;;;;3.95;1.45;;;11.30;99.90;;;;;;4771271;30;20164;-66
2022/10/06 03:31:29;;;;;;;9.57;1.88;;;11.20;99.90;;;;;;4788934;30;20108;-67
2022/10/06 03:33:55;;;;;;;4.85;1.10;;;11.20;99.90;;;;;;4789636;30;20047;-66
2022/10/06 03:36:22;;;;;;;8.07;1.80;;;11.20;99.90;;;;;;4772634;30;20066;-67
2022/10/06 03:38:48;;;;;;;7.57;1.55;;;11.20;99.90;;;;;;4786634;30;20055;-67
2022/10/06 03:41:19;;;;;;;9.25;1.98;;;11.20;99.90;;;;;;4788024;29;20126;-67
2022/10/06 03:43:46;;;;;;;5.10;1.50;;;11.10;99.90;;;;;;4782324;30;20130;-67
2022/10/06 03:46:18;;;;;;;11.68;1.70;;;11.00;99.90;;;;;;4787514;30;20093;-67
2022/10/06 03:48:45;;;;;;;8.25;1.85;;;11.10;99.90;;;;;;4774643;29;20219;-66
2022/10/06 03:51:20;;;;;;;6.32;1.80;;;11.10;99.90;;;;;;4772300;30;20055;-67
2022/10/06 03:53:48;;;;;;;6.15;1.52;;;11.10;99.90;;;;;;4770921;30;20047;-67
2022/10/06 03:56:27;;;;;;;6.97;1.95;;;11.00;99.90;;;;;;4788549;30;20416;-69
2022/10/06 03:59:00;;;;;;;9.43;2.03;;;11.00;99.90;;;;;;4786566;30;20182;-67
2022/10/06 04:01:33;;;;;;;6.20;1.90;;;11.00;99.90;;;;;;4772841;29;20071;-66
2022/10/06 04:04:00;;;;;;;5.82;1.63;;;11.00;99.90;;;;;;4789131;30;20334;-67
2022/10/06 04:06:27;;;;;;;13.90;1.58;;;10.90;99.90;;;;;;4787636;30;20061;-67
2022/10/06 04:08:54;;;;;;;4.32;1.33;;;10.90;99.90;;;;;;4772062;30;20054;-67
2022/10/06 04:11:22;;;;;;;9.50;2.60;;;10.90;99.90;;;;;;4786851;30;20047;-67
2022/10/06 04:13:52;;;;;;;6.43;1.63;;;10.80;99.90;;;;;;4784865;30;20101;-67
2022/10/06 04:16:21;;;;;;;10.27;1.50;;;10.80;99.90;;;;;;4782904;30;20196;-66
2022/10/06 04:18:50;;;;;;;5.97;1.50;;;10.80;99.90;;;;;;4772425;30;20109;-67
2022/10/06 04:21:16;;;;;;;7.88;1.60;;;10.80;99.90;;;;;;4788531;30;20113;-67
2022/10/06 04:23:42;;;;;;;4.60;1.58;;;10.80;99.90;;;;;;4770201;30;20059;-67
2022/10/06 04:26:14;;;;;;;7.80;1.70;;;10.80;99.90;;;;;;4772087;30;20343;-67
2022/10/06 04:28:42;;;;;;;7.00;1.85;;;10.70;99.90;;;;;;4781724;30;20089;-67
2022/10/06 04:34:29;;;;;;;5.50;1.60;;;10.70;99.90;;;;;;4787565;30;20039;-67
2022/10/06 04:36:55;;;;;;;6.28;1.80;;;10.60;99.90;;;;;;4771477;30;20057;-67
2022/10/06 04:39:20;;;;;;;7.18;1.55;;;10.60;99.90;;;;;;4784966;30;20118;-66
2022/10/06 04:41:46;;;;;;;5.38;1.40;;;10.60;99.90;;;;;;4786611;30;20051;-67
2022/10/06 04:44:12;;;;;;;8.90;1.90;;;10.60;99.90;;;;;;4760773;30;20048;-67
2022/10/06 04:46:40;;;;;;;7.85;1.85;;;10.60;99.90;;;;;;4782563;29;20040;-66
2022/10/06 04:49:06;;;;;;;4.50;1.35;;;10.60;99.90;;;;;;4759459;30;20055;-66
2022/10/06 04:51:31;;;;;;;5.07;1.70;;;10.60;99.90;;;;;;4770422;30;20046;-67
2022/10/06 04:54:01;;;;;;;5.18;1.55;;;10.50;99.90;;;;;;4785290;30;20058;-67
2022/10/06 04:56:30;;;;;;;7.80;1.50;;;10.50;99.90;;;;;;4783450;30;20508;-67
2022/10/06 04:59:00;;;;;;;6.07;1.42;;;10.50;99.90;;;;;;4763592;30;20137;-66
2022/10/06 05:01:31;;;;;;;8.05;1.65;;;10.40;99.90;;;;;;4767498;30;20054;-66
2022/10/06 05:03:59;;;;;;;8.55;1.65;;;10.40;99.90;;;;;;4787307;30;20090;-66
2022/10/06 05:06:33;;;;;;;10.93;1.60;;;10.30;99.90;;;;;;4787765;30;20508;-66
2022/10/06 05:09:19;;;;;;;7.25;1.75;;;10.30;99.90;;;;;;4785612;30;20511;-66
2022/10/06 05:11:45;;;;;;;11.30;1.88;;;10.30;99.90;;;;;;4769776;30;20138;-66
2022/10/06 05:14:11;;;;;;;5.53;1.40;;;10.20;99.90;;;;;;4786550;29;20529;-67
2022/10/06 05:16:37;;;;;;;9.20;2.15;;;10.20;99.90;;;;;;4779763;30;20047;-66
2022/10/06 05:19:02;;;;;;;8.07;1.77;;;10.20;99.90;;;;;;4769023;30;20047;-67
2022/10/06 05:21:30;;;;;;;5.82;1.50;;;10.10;99.90;;;;;;4786520;30;20493;-67
2022/10/06 05:23:56;;;;;;;9.23;2.05;;;10.10;99.90;;;;;;4770020;30;20047;-67
2022/10/06 05:26:25;;;;;;;11.38;2.55;;;10.10;99.90;;;;;;4771381;29;20074;-68
2022/10/06 05:28:51;;;;;;;8.85;1.70;;;10.10;99.90;;;;;;4785224;30;20051;-67
2022/10/06 05:31:21;;;;;;;11.07;1.92;;;10.10;99.90;;;;;;4784135;29;20112;-67
2022/10/06 05:33:47;;;;;;;6.85;1.80;;;10.10;99.90;;;;;;4784032;29;20455;-67
2022/10/06 05:36:40;;;;;;;7.60;1.50;;;10.10;99.90;;;;;;4785365;29;20370;-67
2022/10/06 05:39:06;;;;;;;12.00;1.88;;;10.10;99.90;;;;;;4780905;30;20043;-67
2022/10/06 05:41:36;;;;;;;8.65;1.92;;;10.00;99.90;;;;;;4784609;29;20048;-66
2022/10/06 05:44:07;;;;;;;8.15;2.00;;;10.00;99.90;;;;;;4784284;30;20047;-67
2022/10/06 05:50:23;;;;;;;6.18;1.52;;;10.00;99.90;;;;;;4783070;30;20066;-68
2022/10/06 05:52:49;;;;;;;7.95;1.48;;;10.00;99.90;;;;;;4782742;30;20074;-67
2022/10/06 05:55:32;;;;;;;8.27;1.92;;;10.00;99.90;;;;;;4782581;30;20448;-67
2022/10/06 05:57:58;;;;;;;7.05;1.52;;;9.60;99.90;;;;;;4784413;30;20493;-66
2022/10/06 06:00:23;;;;;;;9.75;1.73;;;9.90;99.90;;;;;;4782533;29;20083;-67
2022/10/06 06:02:49;;;;;;;8.23;2.00;;;9.90;99.90;;;;;;4783238;30;20050;-66
2022/10/06 06:05:14;;;;;;;6.63;1.65;;;9.90;99.90;;;;;;4771086;30;20489;-67
2022/10/06 06:07:40;;;;;;;8.40;1.92;;;9.90;99.90;;;;;;4785818;30;20149;-67
2022/10/06 06:10:06;;;;;;;8.35;1.90;;;9.90;99.90;;;;;;4770661;30;20408;-67
2022/10/06 06:12:32;;;;;;;9.65;1.83;;;9.90;99.90;;;;;;4774977;30;20085;-66
2022/10/06 06:17:41;;;;;;;12.45;1.83;;;9.90;99.90;;;;;;4773660;30;20520;-66
2022/10/06 06:20:07;;;;;;;7.55;1.80;;;10.00;99.90;;;;;;4773960;30;20055;-66
2022/10/06 06:22:34;;;;;;;11.32;2.47;;;9.90;99.90;;;;;;4786343;30;20134;-66
2022/10/06 06:25:00;;;;;;;9.32;2.33;;;10.00;99.90;;;;;;4771103;30;20059;-66
2022/10/06 06:27:26;;;;;;;8.73;1.60;;;10.00;99.90;;;;;;4771873;30;20055;-66
2022/10/06 06:29:51;;;;;;;11.23;1.92;;;10.10;99.90;;;;;;4770898;30;20055;-67
2022/10/06 06:32:17;;;;;;;7.13;1.85;;;10.10;99.90;;;;;;4772681;30;20092;-67
2022/10/06 06:34:42;;;;;;;7.20;2.15;;;10.20;99.90;;;;;;4782483;30;20051;-66
2022/10/06 06:37:09;;;;;;;13.80;2.55;;;10.20;99.90;;;;;;4790498;30;20047;-66
2022/10/06 06:39:35;;;;;;;6.03;1.80;;;10.30;99.90;;;;;;4760774;30;20062;-67
2022/10/06 06:42:03;;;;;;;12.98;2.03;;;10.40;99.90;;;;;;4788369;30;20337;-66
2022/10/06 06:44:29;;;;;;;9.60;1.67;;;10.40;99.90;;;;;;4789897;30;20047;-66
2022/10/06 06:46:55;;;;;;;10.80;2.33;;;10.50;99.90;;;;;;4774062;30;20437;-66
2022/10/06 06:49:21;;;;;;;9.25;2.30;;;10.60;99.90;;;;;;4774034;30;20071;-67
2022/10/06 06:51:49;;;;;;;9.68;2.50;;;10.70;99.90;;;;;;4790375;30;20047;-66
2022/10/06 06:54:17;;;;;;;12.05;1.90;;;10.70;99.90;;;;;;4787677;30;20374;-67
2022/10/06 06:56:44;;;;;;;6.90;1.52;;;10.80;99.90;;;;;;4773057;30;20526;-66
2022/10/06 06:59:11;;;;;;;8.77;2.25;;;10.80;99.90;;;;;;4788643;30;20135;-66
2022/10/06 07:01:41;;;;;;;8.20;1.63;;;10.90;99.90;;;;;;4773802;30;20476;-67
2022/10/06 07:04:06;;;;;;;7.80;2.22;;;11.00;99.90;;;;;;4773789;30;20531;-66
2022/10/06 07:06:36;;;;;;;5.25;1.65;;;11.10;99.90;;;;;;4773581;30;20237;-66
2022/10/06 07:09:02;;;;;;;10.32;2.22;;;11.20;99.90;;;;;;4789215;30;20092;-66
2022/10/06 07:11:30;;;;;;;7.18;2.15;;;11.20;99.90;;;;;;4785951;29;20055;-67
2022/10/06 07:14:00;;;;;;;13.43;2.05;;;11.30;99.90;;;;;;4772118;30;20051;-66
2022/10/06 07:27:30;;;;;;;5.90;1.60;;;11.70;99.90;;;;;;4782467;30;20047;-67
2022/10/06 07:29:55;;;;;;;7.18;1.90;;;11.80;99.90;;;;;;4788606;30;20085;-67
2022/10/06 07:32:22;;;;;;;10.00;1.77;;;11.90;99.90;;;;;;4773588;30;20047;-66
2022/10/06 07:34:49;;;;;;;8.23;1.52;;;12.00;99.90;;;;;;4788734;30;20094;-66
2022/10/06 07:37:15;;;;;;;10.05;2.70;;;12.00;99.90;;;;;;4773460;30;20059;-66
2022/10/06 07:39:41;;;;;;;7.47;1.48;;;12.10;99.90;;;;;;4787980;30;20108;-66
2022/10/06 07:42:14;;;;;;;9.73;2.03;;;12.20;99.90;;;;;;4773175;30;20051;-67
2022/10/06 07:44:41;;;;;;;7.63;1.60;;;12.30;99.90;;;;;;4788455;29;20412;-66
2022/10/06 07:47:07;;;;;;;10.95;1.73;;;12.40;99.90;;;;;;4789099;30;20086;-66
2022/10/06 07:49:32;;;;;;;10.25;2.03;;;12.40;99.90;;;;;;4788512;30;20074;-66
2022/10/06 07:51:58;;;;;;;7.25;2.00;;;12.50;99.90;;;;;;4787390;30;20054;-66
2022/10/06 07:54:25;;;;;;;10.10;1.75;;;12.60;99.90;;;;;;4788484;30;20063;-66
2022/10/06 07:56:51;;;;;;;14.40;2.72;;;12.70;99.90;;;;;;4770409;30;20089;-67
2022/10/06 07:59:18;;;;;;;9.70;1.85;;;12.80;99.90;;;;;;4788995;30;20059;-66
2022/10/06 08:01:44;;;;;;;7.20;2.03;;;12.90;99.90;;;;;;4772816;30;20157;-67
2022/10/06 08:04:11;;;;;;;8.93;1.77;;;13.00;99.90;;;;;;4772872;30;20157;-67
2022/10/06 08:06:37;;;;;;;7.95;1.92;;;13.10;99.90;;;;;;4770249;30;20067;-66
2022/10/06 08:09:03;;;;;;;9.93;1.85;;;13.10;99.90;;;;;;4771922;30;20145;-66
2022/10/06 08:11:29;;;;;;;7.05;1.77;;;13.20;99.90;;;;;;4788833;30;20062;-66
2022/10/06 08:13:55;;;;;;;10.65;1.75;;;13.30;99.90;;;;;;4772371;30;20051;-66
2022/10/06 08:16:24;;;;;;;11.77;2.20;;;13.40;99.90;;;;;;4788526;30;20116;-66
2022/10/06 08:18:52;;;;;;;11.55;2.20;;;13.40;99.90;;;;;;4772504;30;20096;-67
2022/10/06 08:21:20;;;;;;;8.02;1.80;;;13.60;99.90;;;;;;4770873;30;20047;-67
2022/10/06 08:23:48;;;;;;;12.20;2.30;;;13.60;99.90;;;;;;4771284;30;20050;-66
2022/10/06 08:26:15;;;;;;;7.88;2.22;;;13.70;99.90;;;;;;4782952;30;20097;-67
2022/10/06 08:28:47;;;;;;;7.55;2.10;;;13.70;99.90;;;;;;4769546;30;20501;-66
2022/10/06 08:31:14;;;;;;;;;;;13.80;99.90;;;;;;4784594;30;20093;-67
2022/10/06 08:33:41;;;;;;;9.23;2.20;;;13.80;99.90;;;;;;4786160;30;20244;-67
2022/10/06 08:36:15;;;;;;;6.32;1.48;;;13.90;99.90;;;;;;4775058;30;20048;-67
2022/10/06 08:38:42;;;;;;;8.27;1.70;;;14.00;99.90;;;;;;4768658;30;20055;-66
2022/10/06 08:41:16;;;;;;;8.95;2.13;;;14.00;99.90;;;;;;4772240;30;20051;-67
2022/10/06 08:43:45;;;;;;;9.05;1.90;;;14.10;99.90;;;;;;4788285;30;20078;-66
2022/10/06 08:46:13;;;;;;;10.35;1.60;;;14.20;99.90;;;;;;4788428;30;20048;-66
2022/10/06 08:48:39;;;;;;;8.38;1.60;;;14.20;99.90;;;;;;4787928;30;20441;-68
2022/10/06 08:51:24;;;;;;;7.22;1.77;;;14.30;99.90;;;;;;4788576;30;20094;-67
2022/10/06 08:54:08;;;;;;;6.00;1.50;;;14.30;99.90;;;;;;4769532;30;20048;-67
2022/10/06 08:56:57;;;;;;;7.18;1.92;;;14.40;99.90;;;;;;4780078;30;20059;-67
2022/10/06 08:59:23;;;;;;;7.32;1.77;;;14.50;99.90;;;;;;4787118;30;20055;-67
2022/10/06 09:01:50;;;;;;;6.07;1.50;;;14.50;99.90;;;;;;4770568;30;20043;-67
2022/10/06 09:04:27;;;;;;;8.90;1.58;;;14.60;99.90;;;;;;4786720;30;20054;-67
2022/10/06 09:06:59;;;;;;;9.27;2.15;;;14.50;99.90;;;;;;4784484;30;20108;-67
2022/10/06 09:09:58;;;;;;;9.48;2.00;;;14.60;99.90;;;;;;4787679;30;20136;-67
2022/10/06 09:12:30;;;;;;;8.48;2.58;;;14.70;99.90;;;;;;4779556;30;20066;-67
2022/10/06 09:15:08;;;;;;;7.13;1.90;;;14.70;99.90;;;;;;4787891;30;20112;-66
2022/10/06 09:17:46;;;;;;;8.27;1.80;;;14.80;99.90;;;;;;4787790;30;20111;-67
2022/10/06 09:20:19;;;;;;;7.40;1.92;;;14.80;99.90;;;;;;4771860;30;20373;-66
2022/10/06 09:22:47;;;;;;;9.55;1.92;;;14.90;99.90;;;;;;4769811;30;20382;-66
2022/10/06 09:25:21;;;;;;;8.35;2.58;;;15.00;99.90;;;;;;4757316;30;20056;-67
2022/10/06 09:27:55;;;;;;;6.80;2.00;;;15.20;99.90;;;;;;4769597;30;20060;-66
2022/10/06 09:30:22;;;;;;;12.35;1.88;;;15.20;99.90;;;;;;4768546;30;20055;-67
2022/10/06 09:32:59;;;;;;;6.53;1.63;;;15.20;99.90;;;;;;4769692;30;20482;-66
2022/10/06 09:35:27;;;;;;;13.63;2.17;;;15.40;99.90;;;;;;4772048;30;20122;-67
2022/10/06 09:37:56;;;;;;;9.82;1.98;;;15.40;99.90;;;;;;4779441;30;20048;-67
2022/10/06 09:40:37;;;;;;;6.95;1.38;;;15.50;99.90;;;;;;4784318;30;20130;-67
2022/10/06 09:43:15;;;;;;;9.00;1.55;;;15.50;99.90;;;;;;4791286;30;20059;-67
2022/10/06 09:45:41;;;;;;;4.82;1.30;;;15.50;99.90;;;;;;4791203;30;20433;-67
2022/10/06 09:48:17;;;;;;;7.60;2.15;;;15.50;99.90;;;;;;4791137;30;20055;-67
2022/10/06 09:50:43;;;;;;;6.72;1.55;;;15.60;99.90;;;;;;4787779;30;20051;-67
2022/10/06 09:53:11;;;;;;;7.72;1.63;;;15.70;99.90;;;;;;4773850;30;20066;-67
2022/10/06 09:55:37;;;;;;;6.80;2.10;;;15.70;99.90;;;;;;4774742;30;20055;-67
2022/10/06 09:58:32;;;;;;;8.10;1.75;;;15.80;99.90;;;;;;4775322;30;20354;-67
2022/10/06 10:06:01;;;;;;;11.50;1.67;;;15.90;99.90;;;;;;4784695;30;20050;-67
2022/10/06 10:12:33;;;;;;;6.82;1.48;;;15.90;99.90;;;;;;4790311;30;20100;-67
2022/10/06 10:15:23;;;;;;;6.10;1.65;;;15.90;99.90;;;;;;4783945;30;20447;-67
2022/10/06 10:17:52;;;;;;;6.80;1.98;;;16.10;99.90;;;;;;4769255;30;20057;-67
2022/10/06 10:20:49;;;;;;;9.02;1.85;;;16.40;99.90;;;;;;4781207;29;20039;-67
2022/10/06 10:23:31;;;;;;;6.55;1.63;;;16.60;99.90;;;;;;4759985;30;20052;-67
2022/10/06 10:26:35;;;;;;;7.30;1.80;;;16.70;99.90;;;;;;4780761;30;20104;-68
2022/10/06 10:29:17;;;;;;;8.20;1.58;;;16.70;99.90;;;;;;4771206;30;20074;-67
2022/10/06 10:31:54;;;;;;;8.65;1.85;;;16.60;99.90;;;;;;4789467;30;20082;-67
2022/10/06 10:34:34;;;;;;;7.68;1.52;;;16.40;99.90;;;;;;4788693;30;20409;-65
2022/10/06 10:37:17;;;;;;;4.18;1.30;;;16.30;99.90;;;;;;4787720;30;20059;-66
2022/10/06 10:39:57;;;;;;;6.25;1.67;;;16.50;99.90;;;;;;4786712;29;20051;-66
2022/10/06 10:46:17;;;;;;;10.63;1.85;;;16.00;99.90;;;;;;4766268;30;20051;-66
2022/10/06 10:48:58;;;;;;;5.22;1.40;;;16.10;99.90;;;;;;4764800;30;20051;-66
2022/10/06 10:51:56;;;;;;;6.85;1.77;;;16.20;99.90;;;;;;4771445;30;20096;-66
2022/10/06 10:54:52;;;;;;;6.80;1.40;;;16.20;99.90;;;;;;4773121;30;20055;-66
2022/10/06 10:57:21;;;;;;;4.25;1.55;;;16.30;99.90;;;;;;4787732;30;20500;-66
2022/10/06 11:00:10;;;;;;;6.75;1.80;;;16.30;99.90;;;;;;4789902;30;20051;-66
2022/10/06 11:02:39;;;;;;;8.10;1.40;;;16.20;99.90;;;;;;4771553;30;20055;-67
2022/10/06 11:05:46;;;;;;;6.38;1.63;;;16.20;99.90;;;;;;4785002;30;20461;-66
2022/10/06 11:08:31;;;;;;;6.40;1.45;;;16.20;99.90;;;;;;4789634;30;20389;-66
2022/10/06 11:11:01;;;;;;;6.15;1.48;;;16.20;99.90;;;;;;4764103;30;20040;-66
2022/10/06 11:13:30;;;;;;;6.88;1.50;;;16.30;99.90;;;;;;4755699;30;20044;-66
2022/10/06 11:16:14;;;;;;;5.07;1.35;;;16.30;99.90;;;;;;4764400;30;20105;-66
2022/10/06 11:19:13;;;;;;;6.15;1.50;;;16.40;99.90;;;;;;4771881;30;20435;-66
2022/10/06 11:22:04;;;;;;;3.08;1.15;;;16.40;99.90;;;;;;4771361;30;20454;-66
2022/10/06 11:25:14;;;;;;;5.95;1.55;;;16.50;99.90;;;;;;4755393;30;20187;-66
2022/10/06 11:27:53;;;;;;;4.35;1.20;;;16.50;99.90;;;;;;4742677;30;20084;-66
2022/10/06 11:30:25;;;;;;;7.47;1.33;;;16.60;99.90;;;;;;4771394;30;20059;-66
2022/10/06 11:33:00;;;;;;;6.88;1.60;;;16.50;99.90;;;;;;4762602;30;20465;-66
2022/10/06 11:35:34;;;;;;;6.53;1.17;;;16.40;99.90;;;;;;4787919;30;20049;-66
2022/10/06 11:38:03;;;;;;;4.90;1.17;;;16.30;99.90;;;;;;4772224;30;20082;-66
2022/10/06 11:40:59;;;;;;;5.88;1.10;;;16.30;99.90;;;;;;4772933;30;20500;-66
2022/10/06 11:43:39;;;;;;;4.28;1.38;;;16.40;99.90;;;;;;4789320;30;20049;-66
2022/10/06 11:46:41;;;;;;;4.63;0.90;;;16.50;99.90;;;;;;4772829;30;20059;-66
2022/10/06 11:49:29;;;;;;;6.18;1.20;;;16.60;99.90;;;;;;4772886;30;20122;-66
2022/10/06 11:52:06;;;;;;;3.97;0.90;;;16.70;99.90;;;;;;4773009;30;20733;-66
2022/10/06 11:54:44;;;;;;;3.45;1.05;;;16.70;99.90;;;;;;4788788;30;20369;-66
2022/10/06 11:57:56;;;;;;;3.30;1.25;;;16.80;99.90;;;;;;4773254;30;20048;-66
2022/10/06 12:00:25;;;;;;;7.97;1.03;;;16.80;99.90;;;;;;4788586;30;20047;-66
2022/10/06 12:02:50;;;;;;;6.38;1.30;;;16.80;99.90;;;;;;4785770;29;20305;-66
2022/10/06 12:05:19;;;;;;;3.30;0.93;;;16.90;99.90;;;;;;4788083;30;20146;-66
2022/10/06 12:07:54;;;;;;;4.00;0.95;;;16.90;99.90;;;;;;4772795;30;20132;-66
2022/10/06 12:10:26;;;;;;;5.60;0.90;;;16.90;99.90;;;;;;4788225;29;20051;-66
2022/10/06 12:12:53;;;;;;;5.40;1.25;;;16.90;99.90;;;;;;4772627;30;20051;-67
2022/10/06 12:15:29;;;;;;;5.68;1.48;;;16.80;99.90;;;;;;4772354;30;20481;-66
2022/10/06 12:18:02;;;;;;;6.43;1.42;;;16.80;99.90;;;;;;4771855;30;20360;-66
2022/10/06 12:20:42;;;;;;;6.07;1.17;;;16.80;99.90;;;;;;4764375;30;20056;-66
2022/10/06 12:23:21;;;;;;;4.43;1.27;;;16.80;99.90;;;;;;4770958;30;20461;-67
2022/10/06 12:26:02;;;;;;;5.47;1.10;;;16.80;99.90;;;;;;4788598;30;20122;-66
2022/10/06 12:28:50;;;;;;;4.53;1.02;;;16.90;99.90;;;;;;4788509;30;20345;-66
2022/10/06 12:31:21;;;;;;;4.60;0.98;;;17.40;99.90;;;;;;4772963;30;20097;-67
2022/10/06 12:33:48;;;;;;;3.85;0.98;;;17.00;99.90;;;;;;4788218;30;20456;-66
2022/10/06 12:36:18;;;;;;;5.50;1.02;;;17.00;99.90;;;;;;4771379;30;20426;-66
2022/10/06 12:39:19;;;;;;;5.68;1.13;;;17.10;99.90;;;;;;4783957;29;20044;-66
2022/10/06 12:42:00;;;;;;;7.15;1.20;;;17.00;99.90;;;;;;4757996;30;20089;-66
2022/10/06 12:44:35;;;;;;;4.63;1.40;;;17.00;99.90;;;;;;4770279;30;20500;-67
2022/10/06 12:47:33;;;;;;;6.35;1.15;;;17.00;99.90;;;;;;4753955;30;20503;-67
2022/10/06 12:50:20;;;;;;;6.65;1.38;;;16.90;99.90;;;;;;4753762;30;20051;-67
2022/10/06 12:52:53;;;;;;;7.80;1.00;;;17.00;99.90;;;;;;4769202;30;20427;-67
2022/10/06 12:55:45;;;;;;;5.18;1.27;;;16.90;99.90;;;;;;4762630;30;20051;-67
2022/10/06 12:59:11;;;;;;;2.95;0.90;;;17.00;99.90;;;;;;4759087;30;20044;-67
2022/10/06 13:01:37;;;;;;;4.20;1.05;;;17.10;99.90;;;;;;4780938;29;20358;-67
2022/10/06 13:04:03;;;;;;;4.47;1.00;;;17.10;99.90;;;;;;4762723;30;20464;-67
2022/10/06 13:06:30;;;;;;;2.90;0.95;;;17.10;99.90;;;;;;4771223;30;20055;-67
2022/10/06 13:09:49;;;;;;;5.63;1.33;;;17.10;99.90;;;;;;4769632;30;20071;-67
2022/10/06 13:12:50;;;;;;;3.92;0.95;;;17.00;99.90;;;;;;4753987;30;20508;-68
2022/10/06 13:15:42;;;;;;;4.30;0.90;;;17.30;99.90;;;;;;4774982;29;20051;-67
2022/10/06 13:18:20;;;;;;;7.20;1.13;;;17.00;99.90;;;;;;4787222;30;20043;-67
2022/10/06 13:20:54;;;;;;;4.80;1.10;;;17.10;99.90;;;;;;4786253;30;20122;-66
2022/10/06 13:23:31;;;;;;;4.05;1.13;;;17.20;99.90;;;;;;4787375;30;20055;-67
2022/10/06 13:26:05;;;;;;;4.57;1.00;;;17.20;99.90;;;;;;4771288;30;20477;-67
2022/10/06 13:28:43;;;;;;;4.20;1.20;;;17.10;99.90;;;;;;4787421;30;20062;-69
